This is the latest recevied weather packets stored in our database for station/object EFOU. If no packets are shown the sender has not sent any weather packets the latest 10 day(s).
| Time | Temp. | Humidity | Pressure | Rain* | Wind** | Luminosity | Snow |
|---|---|---|---|---|---|---|---|
| 1778279250 | 4.44° C | 49% | 1028 hPa | - | - | - | - |
| 1778278050 | 2.22° C | 64% | 1028 hPa | - | - | - | - |
| 1778276850 | 2.78° C | 67% | 1027.9 hPa | - | - | - | - |
| 1778275650 | 1.67° C | 69% | 1027.8 hPa | - | - | - | - |
| 1778274450 | 2.22° C | 69% | 1027.7 hPa | - | - | - | - |
| 1778273250 | 3.33° C | 68% | 1027.7 hPa | - | - | - | - |
| 1778272050 | 2.78° C | 67% | 1027.5 hPa | - | - | - | - |
| 1778270850 | 3.33° C | 70% | 1027.3 hPa | - | - | - | - |
| 1778269649 | 4.44° C | 63% | 1027.2 hPa | - | - | - | - |
| 1778268450 | 5° C | 61% | 1027 hPa | - | - | - | - |
| 1778267249 | 5.56° C | 60% | 1026.9 hPa | - | - | - | - |
| 1778266049 | 7.78° C | 50% | 1026.7 hPa | - | - | - | - |
| 1778264849 | 7.78° C | 51% | 1026.6 hPa | - | - | - | - |
| 1778262449 | 8.89° C | 47% | 1026.5 hPa | - | - | - | - |
| 1778261249 | 8.89° C | 46% | 1026.4 hPa | - | - | - | - |
| 1778260049 | 8.89° C | 46% | 1026.4 hPa | - | - | - | - |
| 1778258848 | 9.44° C | 43% | 1026.3 hPa | - | - | - | - |
| 1778257649 | 9.44° C | 44% | 1026.1 hPa | - | - | - | - |
| 1778256449 | 9.44° C | 44% | 1026.1 hPa | - | - | - | - |
| 1778255249 | 10° C | 40% | 1025.9 hPa | - | - | - | - |
| 1778254049 | 10.56° C | 39% | 1025.8 hPa | - | - | - | - |
| 1778252849 | 10° C | 40% | 1025.7 hPa | - | - | - | - |
| 1778251648 | 10.56° C | 37% | 1025.7 hPa | - | - | - | - |
| 1778250449 | 10.56° C | 38% | 1025.6 hPa | - | - | - | - |
| 1778249248 | 10.56° C | 38% | 1025.7 hPa | - | - | - | - |
* Rain since midnight (hover to see other rain measurements)
** Current wind speed in m/s (hover to see current wind gust speed)